Hyannis, MA (02601)

2:00 AM EDT on August 24, 2016 (GMT -0400)
Cape Air EDC Building | | Change Station

Elev 49 ft 41.67 °N, 70.29 °W | Updated 17 seconds ago

Clear
Clear
66.4 °F
Feels Like 66.4 °F
N
6.3
Wind Variable Wind from SW
Gusts 6.9 mph

Today
High -- | Low -- °F
--% Chance of Precip.
Yesterday
High -- | Low -- °F
Precip. -- in
Pressure 30.26 in
Visibility 10.0 miles
Clouds Clear
Dew Point 60 °F
Humidity 80%
Rainfall 0.00 in
Snow Depth Not available.
5:59 AM 7:26 PM
Waning Gibbous, 60% visible
METAR KHYA 240556Z AUTO 23006KT 10SM CLR 19/15 A3025 RMK AO2 SLP245 T01890150 10211 20189 50002
Pressure 30.26 in
Visibility 10.0 miles
Clouds Clear
Dew Point 60 °F
Humidity 80%
Rainfall 0.00 in
Snow Depth Not available.
5:59 AM 7:26 PM
Waning Gibbous, 60% visible
METAR KHYA 240556Z AUTO 23006KT 10SM CLR 19/15 A3025 RMK AO2 SLP245 T01890150 10211 20189 50002

10-Day Weather Forecast

Almanac

Astronomy

Aug. 24, 2016 Rise Set
Actual Time
Civil Twilight
Nautical Twilight
Astronomical Twilight
Moon
Length of Visible Light
Length of Day
Tomorrow will be .
, % of the Moon is Illuminated

Today's Extremes

State Highs State Lows

Community

WunderPhotos

Upload Photos

1,934,554 photos uploaded!

WunderBlog® & News

Nearby

Air Quality

  Air Quality AQ Index Pollutant
Not available.

Snow Depth

Station Depth Elevation

Earthquake Activity

City Distance Mag. Time & Date
Minimum magnitude displayed is 2.5.

Coastal Water Temperatures

Place Temperature

Stations

Nearby Weather Stations

Station Location Temp. Windchill Dew Point Humidity Wind Precip. Elev Updated Type
                   

Watches & Warnings

There are currently no watches in effect.